Hauptseite
METAR-TAF:

METAR-TAF

Flughäfen :

Johannesburg, Südafrika

Breite: 26-09S, Länge: 28-00E, Höhe: 1626 m

Beobachtung

Neuester Wetterbericht von vor 45 Minuten, um 18:00 UTC
Windstille
Temperatur 22°C
Luftfeuchtigkeit 57%
Luftdruck 1021 hPa

METAR: FAJB 251800Z AUTO 00000KT //// // ////// 22/13 Q1021

Zeit: 20:45 (18:45 UTC)


TAF: fehlend

Wetterbeobachtungen und Prognosen von mehr als 4000 Flughäfen (METAR und TAF Bericht).

Die verfügbaren Stationen werden durch gelbe und rote Markierungen auf der Karte dargestellt.

Führen Sie die Maus auf sie, um den Namen der Station zu sehen.

Darauf klicken, um die Beobachtung von Wetterbeobachtungen und Prognosen zu sehen.

Um die Karte zu ändern : klicken Sie auf den grünen Tasten mit einem schwarzen Kreuz Zum Vergrößern, auf den grünen Button mit einem Gedankenstrich zu verkleinern, oder auf die grünen Pfeile für benachbarte Karten.


METAR-TAF: